createdAt,value
2023-04-04T00:01:45.610Z,1.30
2023-04-04T00:04:12.813Z,1.20
2023-04-04T00:06:44.501Z,1.10
2023-04-04T00:09:12.988Z,1.10
2023-04-04T00:11:41.085Z,1.10
2023-04-04T00:14:08.098Z,1.00
2023-04-04T00:16:35.199Z,1.00
2023-04-04T00:19:02.259Z,1.10
2023-04-04T00:21:30.530Z,1.00
2023-04-04T00:23:57.541Z,1.00
2023-04-04T00:26:24.608Z,1.00
2023-04-04T00:28:51.392Z,1.00
2023-04-04T00:31:19.693Z,1.00
2023-04-04T00:33:47.214Z,1.00
2023-04-04T00:36:14.091Z,1.00
2023-04-04T00:38:41.112Z,0.90
2023-04-04T00:41:08.101Z,0.90
2023-04-04T00:43:35.131Z,0.80
2023-04-04T00:46:02.317Z,0.90
2023-04-04T00:48:29.763Z,0.80
2023-04-04T00:50:56.990Z,0.90
2023-04-04T00:53:24.145Z,0.80
2023-04-04T00:55:51.074Z,0.80
2023-04-04T00:58:18.185Z,0.80
2023-04-04T01:01:13.825Z,0.80
2023-04-04T01:03:41.516Z,0.80
2023-04-04T01:06:08.529Z,0.80
2023-04-04T01:08:37.896Z,0.90
2023-04-04T01:11:05.168Z,0.80
2023-04-04T01:13:33.596Z,0.90
2023-04-04T01:16:01.680Z,0.80
2023-04-04T01:18:29.929Z,0.90
2023-04-04T01:21:06.621Z,0.80
2023-04-04T01:23:51.756Z,0.80
2023-04-04T01:26:21.330Z,0.80
2023-04-04T01:28:49.222Z,0.80
2023-04-04T01:31:19.210Z,0.80
2023-04-04T01:33:51.553Z,0.80
2023-04-04T01:36:39.450Z,0.70
2023-04-04T01:39:22.878Z,0.70
2023-04-04T01:41:50.012Z,0.70
2023-04-04T01:44:17.771Z,0.70
2023-04-04T01:46:44.884Z,0.60
2023-04-04T01:49:12.631Z,0.60
2023-04-04T01:51:40.520Z,0.50
2023-04-04T01:54:08.882Z,0.50
2023-04-04T01:56:35.601Z,0.50
2023-04-04T01:59:02.464Z,0.50
2023-04-04T02:01:29.960Z,0.50
2023-04-04T02:03:56.788Z,0.50
2023-04-04T02:06:24.273Z,0.50
2023-04-04T02:08:51.638Z,0.50
2023-04-04T02:11:18.492Z,0.50
2023-04-04T02:13:45.588Z,0.40
2023-04-04T02:16:15.910Z,0.40
2023-04-04T02:18:42.974Z,0.40
2023-04-04T02:21:09.749Z,0.40
2023-04-04T02:23:36.893Z,0.30
2023-04-04T02:26:04.391Z,0.30
2023-04-04T02:28:31.475Z,0.30
2023-04-04T02:31:02.446Z,0.30
2023-04-04T02:33:30.000Z,0.30
2023-04-04T02:35:59.397Z,0.30
2023-04-04T02:38:27.074Z,0.30
2023-04-04T02:40:53.821Z,0.40
2023-04-04T02:43:21.538Z,0.40
2023-04-04T02:45:49.637Z,0.40
2023-04-04T02:48:27.549Z,0.40
2023-04-04T02:50:58.611Z,0.40
2023-04-04T02:53:25.320Z,0.30
2023-04-04T02:55:55.335Z,0.30
2023-04-04T02:58:22.586Z,0.30
2023-04-04T03:00:55.883Z,0.30
2023-04-04T03:03:27.395Z,0.40
2023-04-04T03:05:54.560Z,0.30
2023-04-04T03:08:21.349Z,0.30
2023-04-04T03:10:48.429Z,0.40
2023-04-04T03:13:15.175Z,0.30
2023-04-04T03:15:42.136Z,0.30
2023-04-04T03:18:08.964Z,0.30
2023-04-04T03:20:36.180Z,0.30
2023-04-04T03:23:03.498Z,0.30
2023-04-04T03:25:30.478Z,0.30
2023-04-04T03:27:57.366Z,0.30
2023-04-04T03:30:27.083Z,0.30
2023-04-04T03:32:55.252Z,0.30
2023-04-04T03:35:22.548Z,0.30
2023-04-04T03:37:49.392Z,0.30
2023-04-04T03:40:16.579Z,0.30
2023-04-04T03:42:43.366Z,0.30
2023-04-04T03:45:12.503Z,0.30
2023-04-04T03:47:41.278Z,0.30
2023-04-04T03:50:08.232Z,0.30
2023-04-04T03:52:41.995Z,0.30
2023-04-04T03:55:08.959Z,0.30
2023-04-04T03:57:36.214Z,0.30
2023-04-04T04:00:04.963Z,0.30
2023-04-04T04:02:39.157Z,0.20
2023-04-04T04:05:07.104Z,0.20
2023-04-04T04:07:33.862Z,0.20
2023-04-04T04:10:00.708Z,0.30
2023-04-04T04:12:27.452Z,0.30
2023-04-04T04:14:54.623Z,0.30
2023-04-04T04:17:21.484Z,0.30
2023-04-04T04:19:49.446Z,0.30
2023-04-04T04:22:17.471Z,0.30
2023-04-04T04:24:44.699Z,0.30
2023-04-04T04:27:11.821Z,0.30
2023-04-04T04:29:38.613Z,0.30
2023-04-04T04:32:05.512Z,0.30
2023-04-04T04:34:36.406Z,0.30
2023-04-04T04:37:03.342Z,0.30
2023-04-04T04:39:37.155Z,0.30
2023-04-04T04:42:17.798Z,0.30
2023-04-04T04:44:51.152Z,0.20
2023-04-04T04:47:19.766Z,0.20
2023-04-04T04:49:49.301Z,0.20
2023-04-04T04:52:20.772Z,0.20
2023-04-04T04:54:48.495Z,0.20
2023-04-04T04:57:15.586Z,0.20
2023-04-04T04:59:44.318Z,0.20
2023-04-04T05:02:13.570Z,0.20
2023-04-04T05:04:45.553Z,0.20
2023-04-04T05:07:14.494Z,0.20
2023-04-04T05:09:44.243Z,0.30
2023-04-04T05:12:11.693Z,0.30
2023-04-04T05:14:45.789Z,0.30
2023-04-04T05:17:12.946Z,0.30
2023-04-04T05:19:40.591Z,0.30
2023-04-04T05:22:08.692Z,0.30
2023-04-04T05:24:43.857Z,0.30
2023-04-04T05:27:14.861Z,0.40
2023-04-04T05:29:48.269Z,0.40
2023-04-04T05:32:16.001Z,0.40
2023-04-04T05:34:49.157Z,0.40
2023-04-04T05:37:18.618Z,0.40
2023-04-04T05:39:49.035Z,0.40
2023-04-04T05:42:17.003Z,0.50
2023-04-04T05:44:49.420Z,0.50
2023-04-04T05:47:16.493Z,0.50
2023-04-04T05:49:46.420Z,0.60
2023-04-04T05:52:13.367Z,0.60
2023-04-04T05:54:41.260Z,0.60
2023-04-04T05:57:14.324Z,0.70
2023-04-04T05:59:51.659Z,0.70
2023-04-04T06:02:19.691Z,0.70
2023-04-04T06:04:51.468Z,0.80
2023-04-04T06:07:27.059Z,0.80
2023-04-04T06:09:53.810Z,0.90
2023-04-04T06:12:20.974Z,0.90
2023-04-04T06:14:48.132Z,0.90
2023-04-04T06:17:19.799Z,0.90
2023-04-04T06:19:48.552Z,0.90
2023-04-04T06:22:17.610Z,0.80
2023-04-04T06:24:48.073Z,0.90
2023-04-04T06:27:14.951Z,1.00
2023-04-04T06:29:42.735Z,1.10
2023-04-04T06:32:09.660Z,1.10
2023-04-04T06:34:39.822Z,1.10
2023-04-04T06:37:07.547Z,1.10
2023-04-04T06:39:41.157Z,1.20
2023-04-04T06:42:14.344Z,1.20
2023-04-04T06:44:47.291Z,1.20
2023-04-04T06:47:14.912Z,1.20
2023-04-04T06:49:41.713Z,1.20
2023-04-04T06:52:08.489Z,1.20
2023-04-04T06:54:35.853Z,1.20
2023-04-04T06:57:03.012Z,1.30
2023-04-04T06:59:30.110Z,1.30
2023-04-04T07:01:57.513Z,1.50
2023-04-04T07:04:24.397Z,1.40
2023-04-04T07:06:51.133Z,1.40
2023-04-04T07:09:28.064Z,1.50
2023-04-04T07:11:56.259Z,1.60
2023-04-04T07:14:25.265Z,1.70
2023-04-04T07:16:52.819Z,1.80
2023-04-04T07:19:19.593Z,1.80
2023-04-04T07:21:46.370Z,1.90
2023-04-04T07:24:13.139Z,2.00
2023-04-04T07:26:40.888Z,2.10
2023-04-04T07:29:08.051Z,2.10
2023-04-04T07:31:34.960Z,2.20
2023-04-04T07:34:02.106Z,2.20
2023-04-04T07:36:29.179Z,2.30
2023-04-04T07:38:55.943Z,2.30
2023-04-04T07:41:22.713Z,2.40
2023-04-04T07:43:49.758Z,2.50
2023-04-04T07:46:16.865Z,2.50
2023-04-04T07:48:44.025Z,2.50
2023-04-04T07:51:10.957Z,2.60
2023-04-04T07:53:37.724Z,2.60
2023-04-04T07:56:06.687Z,2.60
2023-04-04T07:58:34.054Z,2.70
2023-04-04T08:01:01.566Z,2.80
2023-04-04T08:03:48.931Z,2.80
2023-04-04T08:09:31.429Z,2.90
2023-04-04T08:11:58.188Z,3.00
2023-04-04T08:14:24.917Z,3.00
2023-04-04T08:16:51.793Z,3.10
2023-04-04T08:19:18.657Z,3.20
2023-04-04T08:21:45.574Z,3.30
2023-04-04T08:24:12.691Z,3.40
2023-04-04T08:26:39.372Z,3.40
2023-04-04T08:29:06.089Z,3.50
2023-04-04T08:31:33.146Z,3.60
2023-04-04T08:34:02.010Z,3.70
2023-04-04T08:36:29.001Z,3.70
2023-04-04T08:38:55.747Z,3.80
2023-04-04T08:41:22.526Z,3.90
2023-04-04T08:43:54.518Z,3.80
2023-04-04T08:46:21.755Z,3.90
2023-04-04T08:48:50.044Z,3.90
2023-04-04T08:51:19.410Z,3.90
2023-04-04T08:53:46.908Z,3.90
2023-04-04T08:56:14.005Z,4.00
2023-04-04T08:58:40.757Z,4.00
2023-04-04T09:01:07.881Z,4.10
2023-04-04T09:03:36.722Z,4.20
2023-04-04T09:06:04.184Z,4.30
2023-04-04T09:08:31.386Z,4.30
2023-04-04T09:10:58.094Z,4.40
2023-04-04T09:13:24.783Z,4.50
2023-04-04T09:15:52.689Z,4.60
2023-04-04T09:18:19.711Z,4.60
2023-04-04T09:20:47.616Z,4.70
2023-04-04T09:23:20.187Z,4.80
2023-04-04T09:26:02.520Z,4.80
2023-04-04T09:28:30.898Z,4.80
2023-04-04T09:30:59.768Z,4.90
2023-04-04T09:33:26.763Z,5.00
2023-04-04T09:36:02.395Z,5.00
2023-04-04T09:38:30.185Z,5.10
2023-04-04T09:40:58.137Z,5.10
2023-04-04T09:43:25.491Z,5.20
2023-04-04T09:45:55.261Z,5.20
2023-04-04T09:48:25.956Z,5.30
2023-04-04T09:50:52.777Z,5.40
2023-04-04T09:53:19.637Z,5.50
2023-04-04T09:55:53.551Z,5.50
2023-04-04T09:58:27.792Z,5.60
2023-04-04T10:00:56.532Z,5.70
2023-04-04T10:03:24.369Z,5.90
2023-04-04T10:06:01.099Z,6.00
2023-04-04T10:08:28.784Z,6.20
2023-04-04T10:11:11.245Z,6.20
2023-04-04T10:13:44.550Z,6.20
2023-04-04T10:16:12.103Z,6.20
2023-04-04T10:18:39.644Z,6.20
2023-04-04T10:23:38.880Z,6.20
2023-04-04T10:26:06.084Z,6.20
2023-04-04T10:28:34.469Z,6.30
2023-04-04T10:31:06.622Z,6.40
2023-04-04T10:33:40.836Z,6.40
2023-04-04T10:36:08.348Z,6.50
2023-04-04T10:38:40.688Z,6.50
2023-04-04T10:41:07.968Z,6.40
2023-04-04T10:43:35.254Z,6.40
2023-04-04T10:46:08.030Z,6.40
2023-04-04T10:48:34.813Z,6.40
2023-04-04T10:51:01.778Z,6.40
2023-04-04T10:53:28.662Z,6.50
2023-04-04T10:55:55.689Z,6.60
2023-04-04T10:58:22.680Z,6.60
2023-04-04T11:00:51.717Z,6.80
2023-04-04T11:03:18.538Z,6.90
2023-04-04T11:05:49.031Z,6.90
2023-04-04T11:08:24.287Z,7.00
2023-04-04T11:10:51.732Z,7.00
2023-04-04T11:13:22.615Z,6.90
2023-04-04T11:16:05.162Z,6.90
2023-04-04T11:18:33.993Z,7.00
2023-04-04T11:21:06.758Z,7.00
2023-04-04T11:24:00.899Z,7.10
2023-04-04T11:26:30.931Z,7.10
2023-04-04T11:28:58.471Z,7.20
2023-04-04T11:31:30.121Z,7.30
2023-04-04T11:34:07.829Z,7.30
2023-04-04T11:36:37.745Z,7.50
2023-04-04T11:39:04.542Z,7.60
2023-04-04T11:41:53.025Z,7.70
2023-04-04T11:44:21.297Z,7.80
2023-04-04T11:46:49.816Z,7.90
2023-04-04T11:49:18.574Z,7.80
2023-04-04T11:51:45.728Z,7.80
2023-04-04T11:54:18.684Z,7.90
2023-04-04T11:56:45.926Z,7.90
2023-04-04T11:59:13.208Z,7.90
2023-04-04T12:01:40.585Z,7.90
2023-04-04T12:04:07.982Z,7.90
2023-04-04T12:06:37.665Z,7.90
2023-04-04T12:09:05.487Z,7.90
2023-04-04T12:11:36.380Z,7.90
2023-04-04T12:14:03.166Z,7.90
2023-04-04T12:16:30.541Z,7.90
2023-04-04T12:18:57.342Z,7.90
2023-04-04T12:21:24.178Z,7.90
2023-04-04T12:23:51.096Z,7.90
2023-04-04T12:26:19.005Z,7.90
2023-04-04T12:28:45.926Z,7.90
2023-04-04T12:31:13.912Z,7.90
2023-04-04T12:33:41.444Z,7.90
2023-04-04T12:36:08.430Z,8.00
2023-04-04T12:38:40.008Z,8.00
2023-04-04T12:41:09.517Z,8.00
2023-04-04T12:43:41.365Z,8.10
2023-04-04T12:46:08.793Z,8.10
2023-04-04T12:48:36.772Z,8.10
2023-04-04T12:51:04.844Z,8.10
2023-04-04T12:53:33.059Z,8.20
2023-04-04T12:56:01.907Z,8.20
2023-04-04T12:58:29.062Z,8.30
2023-04-04T13:00:58.822Z,8.30
2023-04-04T13:03:25.768Z,8.30
2023-04-04T13:05:52.786Z,8.30
2023-04-04T13:08:19.710Z,8.30
2023-04-04T13:10:59.902Z,8.30
2023-04-04T13:13:34.361Z,8.30
2023-04-04T13:16:01.594Z,8.30
2023-04-04T13:18:32.468Z,8.30
2023-04-04T13:20:59.288Z,8.20
2023-04-04T13:23:26.079Z,8.20
2023-04-04T13:25:53.454Z,8.20
2023-04-04T13:28:20.461Z,8.20
2023-04-04T13:30:49.223Z,8.20
2023-04-04T13:33:17.067Z,8.20
2023-04-04T13:35:44.398Z,8.30
2023-04-04T13:38:11.507Z,8.20
2023-04-04T13:40:38.352Z,8.20
2023-04-04T13:43:05.305Z,8.10
2023-04-04T13:45:35.521Z,8.10
2023-04-04T13:48:03.096Z,8.10
2023-04-04T13:50:30.905Z,8.10
2023-04-04T13:52:57.628Z,8.10
2023-04-04T13:55:24.428Z,8.20
2023-04-04T13:57:51.432Z,8.20
2023-04-04T14:00:18.516Z,8.20
2023-04-04T14:02:45.822Z,8.20
2023-04-04T14:05:12.873Z,8.20
2023-04-04T14:07:39.722Z,8.20
2023-04-04T14:10:07.025Z,8.20
2023-04-04T14:12:34.076Z,8.20
2023-04-04T14:15:01.162Z,8.10
2023-04-04T14:17:28.172Z,8.00
2023-04-04T14:19:54.887Z,8.00
2023-04-04T14:22:21.833Z,8.00
2023-04-04T14:24:48.564Z,8.00
2023-04-04T14:27:15.470Z,8.00
2023-04-04T14:29:42.165Z,8.10
2023-04-04T14:32:09.596Z,8.10
2023-04-04T14:34:36.415Z,8.10
2023-04-04T14:37:03.990Z,8.10
2023-04-04T14:39:30.822Z,8.20
2023-04-04T14:41:57.716Z,8.20
2023-04-04T14:44:25.101Z,8.20
2023-04-04T14:46:53.025Z,8.20
2023-04-04T14:49:19.822Z,8.20
2023-04-04T14:51:46.658Z,8.20
2023-04-04T14:54:13.456Z,8.20
2023-04-04T14:56:42.661Z,8.20
2023-04-04T14:59:09.452Z,8.20
2023-04-04T15:01:36.592Z,8.20
2023-04-04T15:04:03.776Z,8.30
2023-04-04T15:06:36.887Z,8.30
2023-04-04T15:09:06.027Z,8.20
2023-04-04T15:11:32.999Z,8.20
2023-04-04T15:13:59.821Z,8.20
2023-04-04T15:16:32.817Z,8.20
2023-04-04T15:19:00.529Z,8.20
2023-04-04T15:21:28.325Z,8.20
2023-04-04T15:23:55.194Z,8.20
2023-04-04T15:26:22.795Z,8.20
2023-04-04T15:28:49.814Z,8.30
2023-04-04T15:31:17.408Z,8.20
2023-04-04T15:33:44.245Z,8.30
2023-04-04T15:36:11.147Z,8.20
2023-04-04T15:38:40.334Z,8.20
2023-04-04T15:41:08.331Z,8.20
2023-04-04T15:43:35.922Z,8.20
2023-04-04T15:46:02.897Z,8.20
2023-04-04T15:48:30.989Z,8.20
2023-04-04T15:50:59.720Z,8.20
2023-04-04T15:53:26.626Z,8.10
2023-04-04T15:55:53.349Z,8.20
2023-04-04T15:58:20.073Z,8.10
2023-04-04T16:00:49.708Z,8.20
2023-04-04T16:03:16.755Z,8.20
2023-04-04T16:05:43.805Z,8.20
2023-04-04T16:08:10.787Z,8.20
2023-04-04T16:10:37.615Z,8.20
2023-04-04T16:13:04.360Z,8.10
2023-04-04T16:15:31.130Z,8.10
2023-04-04T16:17:59.769Z,8.10
2023-04-04T16:20:27.118Z,8.10
2023-04-04T16:22:55.713Z,8.00
2023-04-04T16:25:22.882Z,8.00
2023-04-04T16:27:49.703Z,8.00
2023-04-04T16:30:16.654Z,8.00
2023-04-04T16:32:46.431Z,8.00
2023-04-04T16:35:13.942Z,8.00
2023-04-04T16:37:40.790Z,8.00
2023-04-04T16:40:08.385Z,7.90
2023-04-04T16:42:35.320Z,7.90
2023-04-04T16:45:02.120Z,7.90
2023-04-04T16:47:28.858Z,7.90
2023-04-04T16:49:56.127Z,7.80
2023-04-04T16:52:23.027Z,7.80
2023-04-04T16:54:49.763Z,7.70
2023-04-04T16:57:16.473Z,7.60
2023-04-04T16:59:44.326Z,7.60
2023-04-04T17:02:11.165Z,7.60
2023-04-04T17:04:41.985Z,7.60
2023-04-04T17:07:09.142Z,7.50
2023-04-04T17:09:35.940Z,7.40
2023-04-04T17:12:03.367Z,7.40
2023-04-04T17:14:30.217Z,7.40
2023-04-04T17:17:00.755Z,7.30
2023-04-04T17:19:29.925Z,7.30
2023-04-04T17:21:57.437Z,7.30
2023-04-04T17:24:25.565Z,7.20
2023-04-04T17:26:52.399Z,7.20
2023-04-04T17:29:20.649Z,7.10
2023-04-04T17:31:50.946Z,7.00
2023-04-04T17:34:17.693Z,7.00
2023-04-04T17:36:44.428Z,6.90
2023-04-04T17:39:12.128Z,6.80
2023-04-04T17:41:38.854Z,6.80
2023-04-04T17:44:05.777Z,6.70
2023-04-04T17:46:32.664Z,6.60
2023-04-04T17:48:59.752Z,6.60
2023-04-04T17:51:27.556Z,6.50
2023-04-04T17:53:54.292Z,6.50
2023-04-04T17:56:24.823Z,6.40
2023-04-04T17:58:53.209Z,6.40
2023-04-04T18:01:20.592Z,6.30
2023-04-04T18:03:47.648Z,6.20
2023-04-04T18:06:14.772Z,6.20
2023-04-04T18:08:45.419Z,6.10
2023-04-04T18:11:12.201Z,6.10
2023-04-04T18:13:39.067Z,6.00
2023-04-04T18:16:09.183Z,6.00
2023-04-04T18:18:36.635Z,5.90
2023-04-04T18:21:03.511Z,5.80
2023-04-04T18:23:30.601Z,5.80
2023-04-04T18:26:01.121Z,5.80
2023-04-04T18:28:31.525Z,5.70
2023-04-04T18:30:58.516Z,5.60
2023-04-04T18:33:26.498Z,5.50
2023-04-04T18:35:53.639Z,5.50
2023-04-04T18:38:20.669Z,5.50
2023-04-04T18:41:08.363Z,5.40
2023-04-04T18:43:35.616Z,5.30
2023-04-04T18:46:04.388Z,5.20
2023-04-04T18:48:33.441Z,5.20
2023-04-04T18:51:22.183Z,5.00
2023-04-04T18:53:50.763Z,4.90
2023-04-04T18:56:33.163Z,4.90
2023-04-04T18:59:00.021Z,4.80
2023-04-04T19:01:27.284Z,4.70
2023-04-04T19:03:55.561Z,4.70
2023-04-04T19:06:27.548Z,4.70
2023-04-04T19:08:59.009Z,4.60
2023-04-04T19:11:30.338Z,4.60
2023-04-04T19:14:03.005Z,4.60
2023-04-04T19:16:36.125Z,4.50
2023-04-04T19:19:05.523Z,4.50
2023-04-04T19:21:32.852Z,4.40
2023-04-04T19:24:07.196Z,4.40
2023-04-04T19:26:55.686Z,4.30
2023-04-04T19:29:29.083Z,4.20
2023-04-04T19:34:47.472Z,4.00
2023-04-04T19:37:19.366Z,4.00
2023-04-04T19:39:52.097Z,4.00
2023-04-04T19:42:58.158Z,4.00
2023-04-04T19:45:59.391Z,4.00
2023-04-04T19:48:48.067Z,3.90
2023-04-04T19:54:27.331Z,3.80
2023-04-04T19:57:08.805Z,3.70
2023-04-04T20:00:31.980Z,3.70
2023-04-04T20:03:10.251Z,3.60
2023-04-04T20:05:45.168Z,3.60
2023-04-04T20:08:16.576Z,3.50
2023-04-04T20:11:06.709Z,3.50
2023-04-04T20:13:45.992Z,3.50
2023-04-04T20:16:20.393Z,3.40
2023-04-04T20:19:25.825Z,3.40
2023-04-04T20:21:59.275Z,3.40
2023-04-04T20:24:29.393Z,3.30
2023-04-04T20:27:03.437Z,3.30
2023-04-04T20:32:19.575Z,3.20
2023-04-04T20:34:58.891Z,3.20
2023-04-04T20:37:44.263Z,3.20
2023-04-04T20:40:36.903Z,3.10
2023-04-04T20:43:12.830Z,3.10
2023-04-04T20:48:57.090Z,3.00
2023-04-04T20:51:33.107Z,3.00
2023-04-04T20:54:13.362Z,3.00
2023-04-04T20:56:59.058Z,3.00
2023-04-04T20:59:36.526Z,2.90
2023-04-04T21:02:13.330Z,2.90
2023-04-04T21:04:46.621Z,2.90
2023-04-04T21:07:41.894Z,2.90
2023-04-04T21:10:30.999Z,2.80
2023-04-04T21:13:01.735Z,2.80
2023-04-04T21:15:34.106Z,2.80
2023-04-04T21:18:05.182Z,2.70
2023-04-04T21:20:58.299Z,2.70
2023-04-04T21:23:29.408Z,2.70
2023-04-04T21:26:02.711Z,2.60
2023-04-04T21:28:42.286Z,2.60
2023-04-04T21:31:44.058Z,2.60
2023-04-04T21:34:20.284Z,2.60
2023-04-04T21:36:55.428Z,2.60
2023-04-04T21:39:43.459Z,2.50
2023-04-04T21:42:15.729Z,2.50
2023-04-04T21:44:55.476Z,2.50
2023-04-04T21:47:42.553Z,2.40
2023-04-04T21:50:15.491Z,2.40
2023-04-04T21:52:51.337Z,2.30
2023-04-04T21:55:25.409Z,2.30
2023-04-04T21:58:02.044Z,2.30
2023-04-04T22:00:44.252Z,2.20
2023-04-04T22:03:18.256Z,2.20
2023-04-04T22:05:57.637Z,2.20
2023-04-04T22:08:31.191Z,2.10
2023-04-04T22:11:10.642Z,2.10
2023-04-04T22:13:47.600Z,2.10
2023-04-04T22:16:24.829Z,2.10
2023-04-04T22:18:56.241Z,2.10
2023-04-04T22:21:47.573Z,2.00
2023-04-04T22:24:21.570Z,2.00
2023-04-04T22:26:56.298Z,2.00
2023-04-04T22:32:30.496Z,1.90
2023-04-04T22:35:01.071Z,1.90
2023-04-04T22:37:58.329Z,1.90
2023-04-04T22:40:29.074Z,1.90
2023-04-04T22:43:00.624Z,1.90
2023-04-04T22:45:35.687Z,1.80
2023-04-04T22:48:28.204Z,1.80
2023-04-04T22:51:02.021Z,1.80
2023-04-04T22:53:30.035Z,1.80
2023-04-04T22:56:04.208Z,1.80
2023-04-04T22:58:32.431Z,1.70
2023-04-04T23:01:06.486Z,1.70
2023-04-04T23:03:46.884Z,1.70
2023-04-04T23:06:22.936Z,1.70
2023-04-04T23:08:59.691Z,1.60
2023-04-04T23:11:36.257Z,1.60
2023-04-04T23:14:18.367Z,1.60
2023-04-04T23:16:52.614Z,1.60
2023-04-04T23:19:42.973Z,1.50
2023-04-04T23:22:19.136Z,1.50
2023-04-04T23:24:53.765Z,1.50
2023-04-04T23:27:27.263Z,1.50
2023-04-04T23:32:58.972Z,1.40
2023-04-04T23:35:30.804Z,1.40
2023-04-04T23:38:18.008Z,1.40
2023-04-04T23:40:57.458Z,1.40
2023-04-04T23:43:26.966Z,1.30
2023-04-04T23:45:56.786Z,1.30
2023-04-04T23:48:37.058Z,1.30
2023-04-04T23:51:11.461Z,1.40
2023-04-04T23:53:39.947Z,1.30
2023-04-04T23:56:11.805Z,1.30
2023-04-04T23:58:47.682Z,1.30
